createdAt,value
2018-07-28T00:02:11.989Z,25.10
2018-07-28T00:04:39.620Z,25.10
2018-07-28T00:07:07.815Z,25.10
2018-07-28T00:09:35.671Z,25.10
2018-07-28T00:12:03.378Z,25.10
2018-07-28T00:14:30.959Z,25.00
2018-07-28T00:16:58.749Z,25.00
2018-07-28T00:19:26.380Z,25.00
2018-07-28T00:21:54.251Z,25.00
2018-07-28T00:24:26.728Z,25.00
2018-07-28T00:26:54.535Z,25.00
2018-07-28T00:29:22.148Z,24.90
2018-07-28T00:34:17.672Z,24.90
2018-07-28T00:36:45.316Z,24.90
2018-07-28T00:39:13.808Z,24.90
2018-07-28T00:41:41.896Z,24.90
2018-07-28T00:44:09.504Z,24.80
2018-07-28T00:46:37.200Z,24.80
2018-07-28T00:49:05.489Z,24.70
2018-07-28T00:51:33.335Z,24.70
2018-07-28T00:54:01.917Z,24.70
2018-07-28T00:56:29.651Z,24.70
2018-07-28T01:01:25.251Z,24.60
2018-07-28T01:03:52.972Z,24.60
2018-07-28T01:06:21.676Z,24.50
2018-07-28T01:08:49.359Z,24.50
2018-07-28T01:11:16.992Z,24.50
2018-07-28T01:13:45.015Z,24.40
2018-07-28T01:16:12.620Z,24.40
2018-07-28T01:18:40.536Z,24.40
2018-07-28T01:21:08.453Z,24.40
2018-07-28T01:23:36.101Z,24.30
2018-07-28T01:26:04.041Z,24.30
2018-07-28T01:30:59.360Z,24.30
2018-07-28T01:33:27.086Z,24.20
2018-07-28T01:35:54.923Z,24.20
2018-07-28T01:38:22.684Z,24.20
2018-07-28T01:40:50.331Z,24.20
2018-07-28T01:45:46.006Z,24.10
2018-07-28T01:48:13.646Z,24.10
2018-07-28T01:53:09.348Z,24.10
2018-07-28T01:55:36.996Z,24.10
2018-07-28T01:58:04.785Z,24.10
2018-07-28T02:03:00.213Z,24.00
2018-07-28T02:05:35.459Z,24.10
2018-07-28T02:08:33.541Z,24.00
2018-07-28T02:11:16.666Z,24.00
2018-07-28T02:13:52.704Z,24.00
2018-07-28T02:16:20.492Z,23.90
2018-07-28T02:18:48.092Z,23.90
2018-07-28T02:21:15.772Z,23.90
2018-07-28T02:23:43.491Z,23.90
2018-07-28T02:26:11.074Z,23.80
2018-07-28T02:28:38.778Z,23.80
2018-07-28T02:31:06.606Z,23.80
2018-07-28T02:33:34.293Z,23.80
2018-07-28T02:36:03.482Z,23.80
2018-07-28T02:38:31.577Z,23.70
2018-07-28T02:40:59.142Z,23.70
2018-07-28T02:45:55.510Z,23.70
2018-07-28T02:48:23.221Z,23.60
2018-07-28T02:50:50.911Z,23.60
2018-07-28T02:53:19.625Z,23.60
2018-07-28T02:55:47.233Z,23.50
2018-07-28T02:58:14.879Z,23.50
2018-07-28T03:00:42.837Z,23.50
2018-07-28T03:03:10.816Z,23.40
2018-07-28T03:05:38.403Z,23.40
2018-07-28T03:10:34.298Z,23.40
2018-07-28T03:13:01.983Z,23.30
2018-07-28T03:18:00.146Z,23.30
2018-07-28T03:20:28.010Z,23.20
2018-07-28T03:22:55.775Z,23.20
2018-07-28T03:25:23.944Z,23.20
2018-07-28T03:27:51.613Z,23.20
2018-07-28T03:30:19.456Z,23.20
2018-07-28T03:32:47.101Z,23.10
2018-07-28T03:35:14.735Z,23.10
2018-07-28T03:37:49.796Z,23.10
2018-07-28T03:40:17.477Z,23.10
2018-07-28T03:42:45.139Z,23.10
2018-07-28T03:45:13.025Z,23.10
2018-07-28T03:50:09.112Z,23.00
2018-07-28T03:52:36.949Z,23.00
2018-07-28T03:55:05.518Z,23.00
2018-07-28T03:57:33.180Z,23.00
2018-07-28T04:02:28.737Z,22.90
2018-07-28T04:04:56.413Z,22.90
2018-07-28T04:07:24.232Z,22.90
2018-07-28T04:09:51.927Z,22.90
2018-07-28T04:12:19.600Z,22.90
2018-07-28T04:14:48.109Z,22.90
2018-07-28T04:17:15.741Z,22.80
2018-07-28T04:22:11.396Z,22.80
2018-07-28T04:24:38.980Z,22.80
2018-07-28T04:27:07.048Z,22.80
2018-07-28T04:32:02.626Z,22.70
2018-07-28T04:34:30.318Z,22.80
2018-07-28T04:39:26.119Z,22.80
2018-07-28T04:41:53.724Z,22.80
2018-07-28T04:44:21.309Z,22.90
2018-07-28T04:46:48.960Z,22.90
2018-07-28T04:49:16.583Z,22.90
2018-07-28T04:51:44.181Z,22.90
2018-07-28T04:54:12.030Z,22.90
2018-07-28T04:56:40.735Z,23.00
2018-07-28T04:59:08.492Z,23.00
2018-07-28T05:01:36.176Z,23.00
2018-07-28T05:04:03.781Z,23.00
2018-07-28T05:06:31.559Z,23.00
2018-07-28T05:08:59.233Z,23.00
2018-07-28T05:21:17.796Z,23.20
2018-07-28T05:23:46.166Z,23.20
2018-07-28T05:26:13.950Z,23.30
2018-07-28T05:28:41.606Z,23.40
2018-07-28T05:31:09.217Z,23.40
2018-07-28T05:33:37.233Z,23.50
2018-07-28T05:36:04.892Z,23.60
2018-07-28T05:38:32.777Z,23.60
2018-07-28T05:41:00.680Z,23.70
2018-07-28T05:43:28.368Z,23.80
2018-07-28T05:45:55.992Z,24.00
2018-07-28T05:48:23.971Z,24.10
2018-07-28T05:50:51.659Z,24.20
2018-07-28T05:53:19.244Z,24.40
2018-07-28T05:55:47.169Z,24.60
2018-07-28T05:58:15.161Z,24.80
2018-07-28T06:00:43.924Z,25.00
2018-07-28T06:08:07.152Z,25.80
2018-07-28T06:10:34.741Z,26.10
2018-07-28T06:13:02.604Z,26.30
2018-07-28T06:15:30.258Z,26.70
2018-07-28T06:17:57.898Z,27.00
2018-07-28T06:20:25.891Z,27.30
2018-07-28T06:22:53.532Z,27.70
2018-07-28T06:25:21.559Z,28.00
2018-07-28T06:27:49.206Z,28.40
2018-07-28T06:30:16.825Z,28.70
2018-07-28T06:32:44.633Z,29.10
2018-07-28T06:35:12.309Z,29.50
2018-07-28T06:37:39.917Z,29.80
2018-07-28T06:40:08.493Z,30.20
2018-07-28T06:42:36.086Z,30.50
2018-07-28T06:45:04.385Z,30.80
2018-07-28T06:47:32.272Z,31.10
2018-07-28T06:49:59.889Z,31.40
2018-07-28T06:52:27.665Z,31.70
2018-07-28T06:54:55.381Z,31.90
2018-07-28T06:57:23.096Z,32.10
2018-07-28T06:59:51.317Z,32.30
2018-07-28T07:02:19.027Z,32.50
2018-07-28T07:04:46.695Z,32.70
2018-07-28T07:07:15.144Z,33.00
2018-07-28T07:12:11.136Z,33.50
2018-07-28T07:14:38.757Z,33.80
2018-07-28T07:17:06.874Z,34.00
2018-07-28T07:19:34.604Z,34.30
2018-07-28T07:22:02.404Z,34.60
2018-07-28T07:24:30.092Z,35.00
2018-07-28T07:26:58.317Z,35.40
2018-07-28T07:29:26.198Z,35.80
2018-07-28T07:31:54.062Z,36.20
2018-07-28T07:36:50.003Z,37.00
2018-07-28T07:39:23.319Z,37.40
2018-07-28T07:41:51.308Z,37.70
2018-07-28T07:44:19.161Z,38.00
2018-07-28T07:46:47.450Z,38.20
2018-07-28T07:49:15.149Z,38.40
2018-07-28T07:51:43.116Z,38.60
2018-07-28T07:54:11.189Z,38.80
2018-07-28T07:56:38.817Z,39.10
2018-07-28T07:59:06.734Z,39.30
2018-07-28T08:01:34.321Z,39.50
2018-07-28T08:04:02.168Z,39.70
2018-07-28T08:06:30.216Z,40.00
2018-07-28T08:08:57.746Z,40.20
2018-07-28T08:13:53.522Z,40.60
2018-07-28T08:16:21.216Z,40.80
2018-07-28T08:18:48.980Z,40.90
2018-07-28T08:21:16.548Z,41.10
2018-07-28T08:23:44.146Z,41.40
2018-07-28T08:26:12.090Z,41.60
2018-07-28T08:28:39.638Z,41.80
2018-07-28T08:31:07.466Z,42.00
2018-07-28T08:33:35.365Z,42.20
2018-07-28T08:38:30.684Z,42.60
2018-07-28T08:40:58.808Z,42.70
2018-07-28T08:43:26.410Z,42.90
2018-07-28T08:45:54.068Z,43.00
2018-07-28T08:48:21.733Z,43.20
2018-07-28T08:50:49.472Z,43.20
2018-07-28T08:53:16.733Z,43.20
2018-07-28T08:55:44.345Z,43.20
2018-07-28T08:58:12.049Z,43.20
2018-07-28T09:00:39.824Z,43.20
2018-07-28T09:03:07.444Z,43.20
2018-07-28T09:05:35.009Z,43.20
2018-07-28T09:10:31.101Z,43.10
2018-07-28T09:12:58.981Z,43.20
2018-07-28T09:15:27.848Z,43.30
2018-07-28T09:17:55.493Z,43.40
2018-07-28T09:20:23.368Z,43.70
2018-07-28T09:22:51.218Z,43.90
2018-07-28T09:25:18.821Z,44.20
2018-07-28T09:27:46.600Z,44.30
2018-07-28T09:30:14.781Z,44.60
2018-07-28T09:32:42.476Z,44.80
2018-07-28T09:35:10.412Z,45.00
2018-07-28T09:37:38.101Z,45.10
2018-07-28T09:40:08.553Z,45.20
2018-07-28T09:42:36.759Z,45.30
2018-07-28T09:47:32.870Z,45.40
2018-07-28T09:50:00.768Z,45.30
2018-07-28T09:52:28.457Z,45.20
2018-07-28T09:57:24.857Z,45.10
2018-07-28T09:59:52.640Z,45.00
2018-07-28T10:02:20.393Z,45.00
2018-07-28T10:04:48.584Z,44.90
2018-07-28T10:07:16.410Z,44.90
2018-07-28T10:09:43.947Z,44.90
2018-07-28T10:12:11.913Z,44.80
2018-07-28T10:14:39.873Z,44.70
2018-07-28T10:17:07.805Z,44.80
2018-07-28T10:19:35.997Z,44.70
2018-07-28T10:24:31.885Z,44.90
2018-07-28T10:26:59.528Z,45.00
2018-07-28T10:29:27.756Z,45.10
2018-07-28T10:31:55.391Z,45.10
2018-07-28T10:34:23.635Z,45.00
2018-07-28T10:39:19.626Z,44.50
2018-07-28T10:46:43.520Z,43.20
2018-07-28T10:49:11.759Z,42.80
2018-07-28T10:51:40.052Z,42.30
2018-07-28T10:54:08.015Z,41.90
2018-07-28T10:56:36.038Z,41.40
2018-07-28T10:59:04.215Z,41.10
2018-07-28T11:01:32.282Z,40.70
2018-07-28T11:04:01.102Z,40.30
2018-07-28T11:06:29.251Z,39.90
2018-07-28T11:08:57.231Z,39.60
2018-07-28T11:11:24.642Z,39.30
2018-07-28T11:13:52.264Z,39.00
2018-07-28T11:16:20.885Z,38.70
2018-07-28T11:21:16.217Z,38.10
2018-07-28T11:23:55.557Z,37.90
2018-07-28T11:26:23.490Z,37.70
2018-07-28T11:28:53.187Z,37.50
2018-07-28T11:32:37.927Z,37.30
2018-07-28T11:35:33.757Z,37.10
2018-07-28T11:38:30.346Z,36.80
2018-07-28T11:41:15.515Z,36.50
2018-07-28T11:44:01.089Z,36.30
2018-07-28T11:46:29.933Z,36.10
2018-07-28T11:48:57.572Z,35.90
2018-07-28T11:51:27.771Z,35.80
2018-07-28T11:53:58.302Z,35.70
2018-07-28T11:56:27.632Z,35.70
2018-07-28T11:58:55.238Z,35.60
2018-07-28T12:01:22.797Z,35.50
2018-07-28T12:03:50.508Z,35.50
2018-07-28T12:08:45.810Z,35.40
2018-07-28T12:11:13.305Z,35.40
2018-07-28T12:16:08.669Z,35.50
2018-07-28T12:18:36.439Z,35.50
2018-07-28T12:21:04.259Z,35.50
2018-07-28T12:23:31.869Z,35.60
2018-07-28T12:25:59.444Z,35.60
2018-07-28T12:28:27.159Z,35.50
2018-07-28T12:30:54.765Z,35.50
2018-07-28T12:33:22.414Z,35.50
2018-07-28T12:35:50.898Z,35.40
2018-07-28T12:38:18.805Z,35.30
2018-07-28T12:40:48.605Z,35.20
2018-07-28T12:43:16.237Z,35.10
2018-07-28T12:45:43.864Z,34.90
2018-07-28T12:48:11.789Z,34.70
2018-07-28T12:53:07.325Z,34.30
2018-07-28T12:55:35.232Z,34.00
2018-07-28T12:58:02.798Z,33.70
2018-07-28T13:00:30.537Z,33.40
2018-07-28T13:02:58.094Z,33.20
2018-07-28T13:05:26.228Z,33.00
2018-07-28T13:07:54.025Z,32.70
2018-07-28T13:12:49.757Z,32.40
2018-07-28T13:15:17.200Z,32.20
2018-07-28T13:17:44.880Z,32.00
2018-07-28T13:20:12.420Z,31.80
2018-07-28T13:22:40.100Z,31.70
2018-07-28T13:25:07.756Z,31.50
2018-07-28T13:27:35.353Z,31.40
2018-07-28T13:30:03.783Z,31.30
2018-07-28T13:32:31.367Z,31.20
2018-07-28T13:34:59.034Z,31.10
2018-07-28T13:37:27.279Z,31.10
2018-07-28T13:39:54.922Z,31.00
2018-07-28T13:42:22.520Z,30.90
2018-07-28T13:44:56.624Z,30.90
2018-07-28T13:47:24.204Z,30.90
2018-07-28T13:49:59.991Z,30.80
2018-07-28T13:52:27.609Z,30.90
2018-07-28T13:54:55.589Z,30.90
2018-07-28T14:02:20.510Z,31.00
2018-07-28T14:04:48.233Z,31.10
2018-07-28T14:07:15.830Z,31.20
2018-07-28T14:09:43.881Z,31.40
2018-07-28T14:12:11.549Z,31.60
2018-07-28T14:14:39.237Z,31.80
2018-07-28T14:17:06.872Z,32.00
2018-07-28T14:19:34.474Z,32.30
2018-07-28T14:22:02.059Z,32.50
2018-07-28T14:24:29.959Z,32.80
2018-07-28T14:26:57.661Z,33.00
2018-07-28T14:29:25.375Z,33.20
2018-07-28T14:31:53.432Z,33.40
2018-07-28T14:34:21.002Z,33.60
2018-07-28T14:36:48.563Z,33.70
2018-07-28T14:39:16.456Z,33.90
2018-07-28T14:41:44.238Z,34.00
2018-07-28T14:46:39.579Z,34.30
2018-07-28T14:49:07.213Z,34.40
2018-07-28T14:51:35.128Z,34.50
2018-07-28T14:54:09.560Z,34.50
2018-07-28T14:56:37.401Z,34.50
2018-07-28T15:01:32.969Z,34.60
2018-07-28T15:04:00.802Z,34.60
2018-07-28T15:06:29.399Z,34.60
2018-07-28T15:08:56.979Z,34.70
2018-07-28T15:11:24.950Z,34.70
2018-07-28T15:13:52.667Z,34.80
2018-07-28T15:16:20.684Z,34.80
2018-07-28T15:21:16.126Z,34.90
2018-07-28T15:23:43.859Z,35.00
2018-07-28T15:26:12.374Z,35.00
2018-07-28T15:28:40.043Z,35.00
2018-07-28T15:31:11.105Z,35.10
2018-07-28T15:33:46.109Z,35.10
2018-07-28T15:36:13.857Z,35.10
2018-07-28T15:38:41.446Z,35.20
2018-07-28T15:41:09.371Z,35.20
2018-07-28T15:43:36.962Z,35.10
2018-07-28T15:46:05.971Z,35.20
2018-07-28T15:48:33.530Z,35.20
2018-07-28T15:51:01.169Z,35.10
2018-07-28T15:53:29.049Z,35.10
2018-07-28T15:55:56.621Z,35.00
2018-07-28T15:58:24.585Z,35.00
2018-07-28T16:00:52.156Z,34.90
2018-07-28T16:03:19.732Z,34.80
2018-07-28T16:05:48.159Z,34.60
2018-07-28T16:08:15.726Z,34.60
2018-07-28T16:10:43.405Z,34.50
2018-07-28T16:13:11.244Z,34.40
2018-07-28T16:15:39.028Z,34.30
2018-07-28T16:18:06.625Z,34.30
2018-07-28T16:20:34.342Z,34.20
2018-07-28T16:23:02.129Z,34.10
2018-07-28T16:25:30.568Z,34.00
2018-07-28T16:27:58.480Z,34.00
2018-07-28T16:30:26.053Z,34.00
2018-07-28T16:32:53.634Z,33.90
2018-07-28T16:35:21.547Z,33.90
2018-07-28T16:37:49.188Z,33.90
2018-07-28T16:40:16.928Z,33.90
2018-07-28T16:42:44.513Z,33.90
2018-07-28T16:45:12.108Z,33.80
2018-07-28T16:47:39.737Z,33.90
2018-07-28T16:50:07.751Z,33.80
2018-07-28T16:52:35.453Z,33.80
2018-07-28T16:55:03.251Z,33.80
2018-07-28T16:57:31.302Z,33.80
2018-07-28T16:59:58.933Z,33.80
2018-07-28T17:02:26.546Z,33.80
2018-07-28T17:04:54.445Z,33.80
2018-07-28T17:07:22.397Z,33.80
2018-07-28T17:09:50.009Z,33.70
2018-07-28T17:12:17.618Z,33.70
2018-07-28T17:14:45.505Z,33.60
2018-07-28T17:17:13.100Z,33.50
2018-07-28T17:19:40.700Z,33.40
2018-07-28T17:22:08.920Z,33.40
2018-07-28T17:24:36.531Z,33.30
2018-07-28T17:27:04.162Z,33.20
2018-07-28T17:29:32.024Z,33.20
2018-07-28T17:31:59.659Z,33.10
2018-07-28T17:34:27.269Z,33.00
2018-07-28T17:36:55.241Z,32.80
2018-07-28T17:39:22.873Z,32.80
2018-07-28T17:44:18.299Z,32.60
2018-07-28T17:46:45.961Z,32.50
2018-07-28T17:49:13.514Z,32.40
2018-07-28T17:51:41.427Z,32.30
2018-07-28T17:56:36.888Z,32.00
2018-07-28T17:59:04.528Z,31.90
2018-07-28T18:01:32.285Z,31.70
2018-07-28T18:03:59.836Z,31.60
2018-07-28T18:06:27.430Z,31.50
2018-07-28T18:08:55.332Z,31.40
2018-07-28T18:11:23.164Z,31.30
2018-07-28T18:13:50.757Z,31.20
2018-07-28T18:16:18.392Z,31.10
2018-07-28T18:18:46.209Z,31.00
2018-07-28T18:21:13.961Z,30.90
2018-07-28T18:23:49.120Z,30.80
2018-07-28T18:26:16.710Z,30.70
2018-07-28T18:28:44.428Z,30.70
2018-07-28T18:31:12.355Z,30.60
2018-07-28T18:33:40.558Z,30.50
2018-07-28T18:36:08.202Z,30.40
2018-07-28T18:38:35.816Z,30.30
2018-07-28T18:41:03.518Z,30.30
2018-07-28T18:43:31.098Z,30.20
2018-07-28T18:45:58.718Z,30.10
2018-07-28T18:48:26.565Z,30.10
2018-07-28T18:50:54.553Z,30.00
2018-07-28T18:53:22.105Z,29.90
2018-07-28T18:55:50.221Z,29.80
2018-07-28T18:58:17.858Z,29.80
2018-07-28T19:00:45.468Z,29.70
2018-07-28T19:03:13.104Z,29.70
2018-07-28T19:05:40.992Z,29.60
2018-07-28T19:08:08.635Z,29.60
2018-07-28T19:10:36.501Z,29.50
2018-07-28T19:13:09.946Z,29.50
2018-07-28T19:15:38.060Z,29.40
2018-07-28T19:21:41.779Z,29.30
2018-07-28T19:24:09.502Z,29.20
2018-07-28T19:26:37.056Z,29.10
2018-07-28T19:29:10.615Z,29.10
2018-07-28T19:31:38.240Z,29.00
2018-07-28T19:34:06.144Z,28.90
2018-07-28T19:36:39.540Z,28.90
2018-07-28T19:41:42.128Z,28.70
2018-07-28T19:46:38.265Z,28.60
2018-07-28T19:49:06.583Z,28.60
2018-07-28T19:51:34.212Z,28.60
2018-07-28T19:54:01.921Z,28.50
2018-07-28T19:56:30.095Z,28.50
2018-07-28T19:58:57.738Z,28.50
2018-07-28T20:01:25.436Z,28.50
2018-07-28T20:03:53.916Z,28.40
2018-07-28T20:06:21.578Z,28.40
2018-07-28T20:11:16.972Z,28.40
2018-07-28T20:13:44.754Z,28.40
2018-07-28T20:16:12.563Z,28.30
2018-07-28T20:18:40.420Z,28.30
2018-07-28T20:23:36.055Z,28.30
2018-07-28T20:28:32.029Z,28.30
2018-07-28T20:30:59.681Z,28.30
2018-07-28T20:33:27.534Z,28.30
2018-07-28T20:38:23.337Z,28.20
2018-07-28T20:40:51.169Z,28.20
2018-07-28T20:43:18.853Z,28.20
2018-07-28T20:45:46.448Z,28.20
2018-07-28T20:48:14.295Z,28.20
2018-07-28T20:50:41.902Z,28.30
2018-07-28T20:53:09.547Z,28.20
2018-07-28T20:55:37.197Z,28.30
2018-07-28T20:58:04.926Z,28.30
2018-07-28T21:00:32.807Z,28.30
2018-07-28T21:03:00.414Z,28.30
2018-07-28T21:05:28.046Z,28.30
2018-07-28T21:10:23.566Z,28.20
2018-07-28T21:12:51.221Z,28.20
2018-07-28T21:15:19.218Z,28.10
2018-07-28T21:17:46.861Z,28.10
2018-07-28T21:20:14.465Z,28.10
2018-07-28T21:22:42.552Z,28.00
2018-07-28T21:25:10.168Z,27.90
2018-07-28T21:27:37.853Z,27.90
2018-07-28T21:30:05.700Z,27.90
2018-07-28T21:32:33.639Z,27.80
2018-07-28T21:35:01.361Z,27.80
2018-07-28T21:37:28.920Z,27.70
2018-07-28T21:39:56.512Z,27.70
2018-07-28T21:44:52.133Z,27.60
2018-07-28T21:49:48.648Z,27.50
2018-07-28T21:52:16.259Z,27.50
2018-07-28T21:57:11.577Z,27.30
2018-07-28T21:59:39.320Z,27.30
2018-07-28T22:02:07.391Z,27.20
2018-07-28T22:04:37.129Z,27.20
2018-07-28T22:07:04.789Z,27.20
2018-07-28T22:09:32.933Z,27.10
2018-07-28T22:12:00.707Z,27.10
2018-07-28T22:14:28.331Z,27.10
2018-07-28T22:16:56.018Z,27.10
2018-07-28T22:21:51.328Z,27.10
2018-07-28T22:24:19.121Z,27.00
2018-07-28T22:29:14.480Z,27.00
2018-07-28T22:31:42.590Z,27.00
2018-07-28T22:34:10.241Z,27.00
2018-07-28T22:36:37.940Z,27.00
2018-07-28T22:39:08.907Z,27.00
2018-07-28T22:41:36.814Z,26.90
2018-07-28T22:44:04.494Z,26.90
2018-07-28T22:46:32.046Z,26.90
2018-07-28T22:48:59.994Z,26.90
2018-07-28T22:58:50.870Z,26.50
2018-07-28T23:01:18.916Z,26.40
2018-07-28T23:03:46.513Z,26.40
2018-07-28T23:08:42.160Z,26.20
2018-07-28T23:11:09.722Z,26.10
2018-07-28T23:13:37.381Z,26.10
2018-07-28T23:18:33.471Z,25.90
2018-07-28T23:21:01.092Z,25.90
2018-07-28T23:25:56.574Z,25.90
2018-07-28T23:28:24.225Z,25.90
2018-07-28T23:30:51.940Z,25.80
2018-07-28T23:33:26.410Z,25.80
2018-07-28T23:35:54.499Z,25.80
2018-07-28T23:38:22.112Z,25.70
2018-07-28T23:40:49.729Z,25.70
2018-07-28T23:43:17.558Z,25.70
2018-07-28T23:45:45.201Z,25.70
2018-07-28T23:48:12.784Z,25.70
2018-07-28T23:50:40.567Z,25.80
2018-07-28T23:58:03.605Z,25.80
